sensor_id;sensor_type;location;lat;lon;timestamp;temperature;humidity
23597;DHT22;40226;50.874;4.394;2022-11-13T00:01:17;10.60;99.90
23597;DHT22;40226;50.874;4.394;2022-11-13T00:03:43;10.60;99.90
23597;DHT22;40226;50.874;4.394;2022-11-13T00:06:11;10.80;99.90
23597;DHT22;40226;50.874;4.394;2022-11-13T00:08:37;10.70;99.90
23597;DHT22;40226;50.874;4.394;2022-11-13T00:11:08;10.80;99.90
23597;DHT22;40226;50.874;4.394;2022-11-13T00:13:35;10.90;99.90
23597;DHT22;40226;50.874;4.394;2022-11-13T00:16:06;10.90;99.90
23597;DHT22;40226;50.874;4.394;2022-11-13T00:18:34;10.70;99.90
23597;DHT22;40226;50.874;4.394;2022-11-13T00:21:13;10.60;99.90
23597;DHT22;40226;50.874;4.394;2022-11-13T00:23:39;10.60;99.90
23597;DHT22;40226;50.874;4.394;2022-11-13T00:26:16;10.50;99.90
23597;DHT22;40226;50.874;4.394;2022-11-13T00:28:42;10.50;99.90
23597;DHT22;40226;50.874;4.394;2022-11-13T00:31:13;10.40;99.90
23597;DHT22;40226;50.874;4.394;2022-11-13T00:33:39;10.60;99.90
23597;DHT22;40226;50.874;4.394;2022-11-13T00:36:07;10.60;99.90
23597;DHT22;40226;50.874;4.394;2022-11-13T00:38:34;10.50;99.90
23597;DHT22;40226;50.874;4.394;2022-11-13T00:41:00;10.40;99.90
23597;DHT22;40226;50.874;4.394;2022-11-13T00:43:28;10.40;99.90
23597;DHT22;40226;50.874;4.394;2022-11-13T00:45:54;10.40;99.90
23597;DHT22;40226;50.874;4.394;2022-11-13T00:48:20;10.20;99.90
23597;DHT22;40226;50.874;4.394;2022-11-13T00:50:46;10.20;99.90
23597;DHT22;40226;50.874;4.394;2022-11-13T00:53:12;10.30;99.90
23597;DHT22;40226;50.874;4.394;2022-11-13T00:55:37;10.40;99.90
23597;DHT22;40226;50.874;4.394;2022-11-13T00:58:03;10.30;99.90
23597;DHT22;40226;50.874;4.394;2022-11-13T01:00:30;10.20;99.90
23597;DHT22;40226;50.874;4.394;2022-11-13T01:02:59;10.10;99.90
23597;DHT22;40226;50.874;4.394;2022-11-13T01:05:28;10.00;99.90
23597;DHT22;40226;50.874;4.394;2022-11-13T01:07:54;9.90;99.90
23597;DHT22;40226;50.874;4.394;2022-11-13T01:10:21;9.90;99.90
23597;DHT22;40226;50.874;4.394;2022-11-13T01:12:46;10.00;99.90
23597;DHT22;40226;50.874;4.394;2022-11-13T01:15:12;10.10;99.90
23597;DHT22;40226;50.874;4.394;2022-11-13T01:17:38;10.10;99.90
23597;DHT22;40226;50.874;4.394;2022-11-13T01:20:04;10.00;99.90
23597;DHT22;40226;50.874;4.394;2022-11-13T01:22:30;10.20;99.90
23597;DHT22;40226;50.874;4.394;2022-11-13T01:24:56;10.20;99.90
23597;DHT22;40226;50.874;4.394;2022-11-13T01:27:21;10.20;99.90
23597;DHT22;40226;50.874;4.394;2022-11-13T01:29:47;10.40;99.90
23597;DHT22;40226;50.874;4.394;2022-11-13T01:32:12;10.50;99.90
23597;DHT22;40226;50.874;4.394;2022-11-13T01:34:38;10.60;99.90
23597;DHT22;40226;50.874;4.394;2022-11-13T01:37:04;10.60;99.90
23597;DHT22;40226;50.874;4.394;2022-11-13T01:39:29;10.40;99.90
23597;DHT22;40226;50.874;4.394;2022-11-13T01:41:55;10.20;99.90
23597;DHT22;40226;50.874;4.394;2022-11-13T01:44:21;10.00;99.90
23597;DHT22;40226;50.874;4.394;2022-11-13T01:46:52;10.00;99.90
23597;DHT22;40226;50.874;4.394;2022-11-13T01:49:26;10.00;99.90
23597;DHT22;40226;50.874;4.394;2022-11-13T01:52:09;10.30;99.90
23597;DHT22;40226;50.874;4.394;2022-11-13T01:54:39;10.40;99.90
23597;DHT22;40226;50.874;4.394;2022-11-13T01:57:07;10.50;99.90
23597;DHT22;40226;50.874;4.394;2022-11-13T01:59:39;10.50;99.90
23597;DHT22;40226;50.874;4.394;2022-11-13T02:02:05;10.40;99.90
23597;DHT22;40226;50.874;4.394;2022-11-13T02:04:31;10.60;99.90
23597;DHT22;40226;50.874;4.394;2022-11-13T02:07:00;10.40;99.90
23597;DHT22;40226;50.874;4.394;2022-11-13T02:09:33;10.40;99.90
23597;DHT22;40226;50.874;4.394;2022-11-13T02:11:59;10.50;99.90
23597;DHT22;40226;50.874;4.394;2022-11-13T02:14:26;10.60;99.90
23597;DHT22;40226;50.874;4.394;2022-11-13T02:16:56;10.50;99.90
23597;DHT22;40226;50.874;4.394;2022-11-13T02:19:37;10.30;99.90
23597;DHT22;40226;50.874;4.394;2022-11-13T02:24:45;10.00;99.90
23597;DHT22;40226;50.874;4.394;2022-11-13T02:27:20;10.10;99.90
23597;DHT22;40226;50.874;4.394;2022-11-13T02:29:48;10.20;99.90
23597;DHT22;40226;50.874;4.394;2022-11-13T02:32:13;10.10;99.90
23597;DHT22;40226;50.874;4.394;2022-11-13T02:34:39;10.00;99.90
23597;DHT22;40226;50.874;4.394;2022-11-13T02:37:05;10.00;99.90
23597;DHT22;40226;50.874;4.394;2022-11-13T02:39:30;9.90;99.90
23597;DHT22;40226;50.874;4.394;2022-11-13T02:41:56;10.00;99.90
23597;DHT22;40226;50.874;4.394;2022-11-13T02:44:21;10.00;99.90
23597;DHT22;40226;50.874;4.394;2022-11-13T02:46:47;9.80;99.90
23597;DHT22;40226;50.874;4.394;2022-11-13T02:49:12;9.70;99.90
23597;DHT22;40226;50.874;4.394;2022-11-13T02:51:38;9.60;99.90
23597;DHT22;40226;50.874;4.394;2022-11-13T02:54:04;9.70;99.90
23597;DHT22;40226;50.874;4.394;2022-11-13T02:56:29;9.80;99.90
23597;DHT22;40226;50.874;4.394;2022-11-13T02:58:55;9.80;99.90
23597;DHT22;40226;50.874;4.394;2022-11-13T03:01:21;9.80;99.90
23597;DHT22;40226;50.874;4.394;2022-11-13T03:03:46;9.60;99.90
23597;DHT22;40226;50.874;4.394;2022-11-13T03:06:12;9.60;99.90
23597;DHT22;40226;50.874;4.394;2022-11-13T03:08:37;9.60;99.90
23597;DHT22;40226;50.874;4.394;2022-11-13T03:11:07;9.60;99.90
23597;DHT22;40226;50.874;4.394;2022-11-13T03:13:34;9.60;99.90
23597;DHT22;40226;50.874;4.394;2022-11-13T03:16:08;9.60;99.90
23597;DHT22;40226;50.874;4.394;2022-11-13T03:18:34;9.60;99.90
23597;DHT22;40226;50.874;4.394;2022-11-13T03:21:08;9.60;99.90
23597;DHT22;40226;50.874;4.394;2022-11-13T03:23:34;9.70;99.90
23597;DHT22;40226;50.874;4.394;2022-11-13T03:26:08;9.50;99.90
23597;DHT22;40226;50.874;4.394;2022-11-13T03:28:34;9.40;99.90
23597;DHT22;40226;50.874;4.394;2022-11-13T03:31:00;9.50;99.90
23597;DHT22;40226;50.874;4.394;2022-11-13T03:33:26;9.50;99.90
23597;DHT22;40226;50.874;4.394;2022-11-13T03:35:51;9.30;99.90
23597;DHT22;40226;50.874;4.394;2022-11-13T03:38:17;9.50;99.90
23597;DHT22;40226;50.874;4.394;2022-11-13T03:40:43;9.50;99.90
23597;DHT22;40226;50.874;4.394;2022-11-13T03:43:08;9.60;99.90
23597;DHT22;40226;50.874;4.394;2022-11-13T03:45:34;9.60;99.90
23597;DHT22;40226;50.874;4.394;2022-11-13T03:47:59;9.60;99.90
23597;DHT22;40226;50.874;4.394;2022-11-13T03:50:25;9.30;99.90
23597;DHT22;40226;50.874;4.394;2022-11-13T03:52:51;9.40;99.90
23597;DHT22;40226;50.874;4.394;2022-11-13T03:55:17;9.40;99.90
23597;DHT22;40226;50.874;4.394;2022-11-13T03:57:42;9.40;99.90
23597;DHT22;40226;50.874;4.394;2022-11-13T04:00:09;9.30;99.90
23597;DHT22;40226;50.874;4.394;2022-11-13T04:02:35;9.50;99.90
23597;DHT22;40226;50.874;4.394;2022-11-13T04:05:00;9.50;99.90
23597;DHT22;40226;50.874;4.394;2022-11-13T04:07:26;9.90;99.90
23597;DHT22;40226;50.874;4.394;2022-11-13T04:09:52;10.10;99.90
23597;DHT22;40226;50.874;4.394;2022-11-13T04:12:17;9.90;99.90
23597;DHT22;40226;50.874;4.394;2022-11-13T04:14:43;9.70;99.90
23597;DHT22;40226;50.874;4.394;2022-11-13T04:17:08;9.70;99.90
23597;DHT22;40226;50.874;4.394;2022-11-13T04:19:34;9.60;99.90
23597;DHT22;40226;50.874;4.394;2022-11-13T04:22:19;9.60;99.90
23597;DHT22;40226;50.874;4.394;2022-11-13T04:25:07;9.60;99.90
23597;DHT22;40226;50.874;4.394;2022-11-13T04:27:34;9.70;99.90
23597;DHT22;40226;50.874;4.394;2022-11-13T04:29:59;9.80;99.90
23597;DHT22;40226;50.874;4.394;2022-11-13T04:32:25;9.80;99.90
23597;DHT22;40226;50.874;4.394;2022-11-13T04:34:50;9.70;99.90
23597;DHT22;40226;50.874;4.394;2022-11-13T04:37:16;9.80;99.90
23597;DHT22;40226;50.874;4.394;2022-11-13T04:39:42;9.90;99.90
23597;DHT22;40226;50.874;4.394;2022-11-13T04:42:09;10.00;99.90
23597;DHT22;40226;50.874;4.394;2022-11-13T04:44:54;10.00;99.90
23597;DHT22;40226;50.874;4.394;2022-11-13T04:47:19;9.90;99.90
23597;DHT22;40226;50.874;4.394;2022-11-13T04:49:45;9.90;99.90
23597;DHT22;40226;50.874;4.394;2022-11-13T04:52:10;9.90;99.90
23597;DHT22;40226;50.874;4.394;2022-11-13T04:54:37;9.90;99.90
23597;DHT22;40226;50.874;4.394;2022-11-13T04:57:03;10.00;99.90
23597;DHT22;40226;50.874;4.394;2022-11-13T04:59:29;9.90;99.90
23597;DHT22;40226;50.874;4.394;2022-11-13T05:01:55;9.90;99.90
23597;DHT22;40226;50.874;4.394;2022-11-13T05:04:21;9.70;99.90
23597;DHT22;40226;50.874;4.394;2022-11-13T05:06:47;9.70;99.90
23597;DHT22;40226;50.874;4.394;2022-11-13T05:09:13;9.70;99.90
23597;DHT22;40226;50.874;4.394;2022-11-13T05:11:38;9.80;99.90
23597;DHT22;40226;50.874;4.394;2022-11-13T05:14:05;9.80;99.90
23597;DHT22;40226;50.874;4.394;2022-11-13T05:16:30;9.70;99.90
23597;DHT22;40226;50.874;4.394;2022-11-13T05:18:59;9.40;99.90
23597;DHT22;40226;50.874;4.394;2022-11-13T05:21:25;9.20;99.90
23597;DHT22;40226;50.874;4.394;2022-11-13T05:23:50;9.20;99.90
23597;DHT22;40226;50.874;4.394;2022-11-13T05:26:17;9.30;99.90
23597;DHT22;40226;50.874;4.394;2022-11-13T05:28:42;9.20;99.90
23597;DHT22;40226;50.874;4.394;2022-11-13T05:31:12;9.10;99.90
23597;DHT22;40226;50.874;4.394;2022-11-13T05:33:40;9.10;99.90
23597;DHT22;40226;50.874;4.394;2022-11-13T05:36:08;9.10;99.90
23597;DHT22;40226;50.874;4.394;2022-11-13T05:38:34;9.10;99.90
23597;DHT22;40226;50.874;4.394;2022-11-13T05:41:11;9.00;99.90
23597;DHT22;40226;50.874;4.394;2022-11-13T05:43:37;8.90;99.90
23597;DHT22;40226;50.874;4.394;2022-11-13T05:46:14;8.80;99.90
23597;DHT22;40226;50.874;4.394;2022-11-13T05:48:41;8.80;99.90
23597;DHT22;40226;50.874;4.394;2022-11-13T05:53:34;9.00;99.90
23597;DHT22;40226;50.874;4.394;2022-11-13T05:56:09;8.90;99.90
23597;DHT22;40226;50.874;4.394;2022-11-13T05:58:35;8.90;99.90
23597;DHT22;40226;50.874;4.394;2022-11-13T06:01:14;8.80;99.90
23597;DHT22;40226;50.874;4.394;2022-11-13T06:03:41;8.80;99.90
23597;DHT22;40226;50.874;4.394;2022-11-13T06:06:09;8.80;99.90
23597;DHT22;40226;50.874;4.394;2022-11-13T06:08:35;8.90;99.90
23597;DHT22;40226;50.874;4.394;2022-11-13T06:11:09;8.80;99.90
23597;DHT22;40226;50.874;4.394;2022-11-13T06:13:39;8.70;99.90
23597;DHT22;40226;50.874;4.394;2022-11-13T06:16:06;8.60;99.90
23597;DHT22;40226;50.874;4.394;2022-11-13T06:18:36;8.60;99.90
23597;DHT22;40226;50.874;4.394;2022-11-13T06:21:17;8.70;99.90
23597;DHT22;40226;50.874;4.394;2022-11-13T06:23:43;8.60;99.90
23597;DHT22;40226;50.874;4.394;2022-11-13T06:26:12;8.50;99.90
23597;DHT22;40226;50.874;4.394;2022-11-13T06:28:39;8.40;99.90
23597;DHT22;40226;50.874;4.394;2022-11-13T06:31:11;8.60;99.90
23597;DHT22;40226;50.874;4.394;2022-11-13T06:33:38;8.80;99.90
23597;DHT22;40226;50.874;4.394;2022-11-13T06:36:05;8.80;99.90
23597;DHT22;40226;50.874;4.394;2022-11-13T06:38:32;8.60;99.90
23597;DHT22;40226;50.874;4.394;2022-11-13T06:40:58;8.50;99.90
23597;DHT22;40226;50.874;4.394;2022-11-13T06:43:24;8.40;99.90
23597;DHT22;40226;50.874;4.394;2022-11-13T06:45:49;8.40;99.90
23597;DHT22;40226;50.874;4.394;2022-11-13T06:48:15;8.60;99.90
23597;DHT22;40226;50.874;4.394;2022-11-13T06:50:40;8.50;99.90
23597;DHT22;40226;50.874;4.394;2022-11-13T06:53:06;8.50;99.90
23597;DHT22;40226;50.874;4.394;2022-11-13T06:55:32;8.50;99.90
23597;DHT22;40226;50.874;4.394;2022-11-13T06:57:57;8.50;99.90
23597;DHT22;40226;50.874;4.394;2022-11-13T07:00:23;8.50;99.90
23597;DHT22;40226;50.874;4.394;2022-11-13T07:02:48;8.60;99.90
23597;DHT22;40226;50.874;4.394;2022-11-13T07:05:14;8.70;99.90
23597;DHT22;40226;50.874;4.394;2022-11-13T07:07:40;8.70;99.90
23597;DHT22;40226;50.874;4.394;2022-11-13T07:10:06;8.80;99.90
23597;DHT22;40226;50.874;4.394;2022-11-13T07:12:32;8.80;99.90
23597;DHT22;40226;50.874;4.394;2022-11-13T07:14:58;8.70;99.90
23597;DHT22;40226;50.874;4.394;2022-11-13T07:17:23;8.70;99.90
23597;DHT22;40226;50.874;4.394;2022-11-13T07:19:49;8.70;99.90
23597;DHT22;40226;50.874;4.394;2022-11-13T07:22:15;8.70;99.90
23597;DHT22;40226;50.874;4.394;2022-11-13T07:24:40;8.70;99.90
23597;DHT22;40226;50.874;4.394;2022-11-13T07:27:07;8.70;99.90
23597;DHT22;40226;50.874;4.394;2022-11-13T07:29:33;8.60;99.90
23597;DHT22;40226;50.874;4.394;2022-11-13T07:32:00;8.60;99.90
23597;DHT22;40226;50.874;4.394;2022-11-13T07:34:26;8.50;99.90
23597;DHT22;40226;50.874;4.394;2022-11-13T07:36:52;8.50;99.90
23597;DHT22;40226;50.874;4.394;2022-11-13T07:39:17;8.70;99.90
23597;DHT22;40226;50.874;4.394;2022-11-13T07:41:43;8.80;99.90
23597;DHT22;40226;50.874;4.394;2022-11-13T07:44:08;8.80;99.90
23597;DHT22;40226;50.874;4.394;2022-11-13T07:46:34;8.60;99.90
23597;DHT22;40226;50.874;4.394;2022-11-13T07:48:59;8.70;99.90
23597;DHT22;40226;50.874;4.394;2022-11-13T07:51:25;8.80;99.90
23597;DHT22;40226;50.874;4.394;2022-11-13T07:53:50;8.70;99.90
23597;DHT22;40226;50.874;4.394;2022-11-13T07:56:16;8.50;99.90
23597;DHT22;40226;50.874;4.394;2022-11-13T07:58:42;8.50;99.90
23597;DHT22;40226;50.874;4.394;2022-11-13T08:01:07;8.50;99.90
23597;DHT22;40226;50.874;4.394;2022-11-13T08:03:33;8.80;99.90
23597;DHT22;40226;50.874;4.394;2022-11-13T08:06:04;8.80;99.90
23597;DHT22;40226;50.874;4.394;2022-11-13T08:08:30;8.70;99.90
23597;DHT22;40226;50.874;4.394;2022-11-13T08:10:56;8.70;99.90
23597;DHT22;40226;50.874;4.394;2022-11-13T08:13:22;8.90;99.90
23597;DHT22;40226;50.874;4.394;2022-11-13T08:15:47;9.00;99.90
23597;DHT22;40226;50.874;4.394;2022-11-13T08:18:13;8.90;99.90
23597;DHT22;40226;50.874;4.394;2022-11-13T08:20:38;8.80;99.90
23597;DHT22;40226;50.874;4.394;2022-11-13T08:23:04;8.90;99.90
23597;DHT22;40226;50.874;4.394;2022-11-13T08:25:32;8.90;99.90
23597;DHT22;40226;50.874;4.394;2022-11-13T08:27:58;8.70;99.90
23597;DHT22;40226;50.874;4.394;2022-11-13T08:30:25;8.70;99.90
23597;DHT22;40226;50.874;4.394;2022-11-13T08:32:51;8.70;99.90
23597;DHT22;40226;50.874;4.394;2022-11-13T08:35:19;8.80;99.90
23597;DHT22;40226;50.874;4.394;2022-11-13T08:37:45;8.90;99.90
23597;DHT22;40226;50.874;4.394;2022-11-13T08:40:11;8.90;99.90
23597;DHT22;40226;50.874;4.394;2022-11-13T08:42:39;9.00;99.90
23597;DHT22;40226;50.874;4.394;2022-11-13T08:45:05;9.10;99.90
23597;DHT22;40226;50.874;4.394;2022-11-13T08:47:31;9.20;99.90
23597;DHT22;40226;50.874;4.394;2022-11-13T08:49:56;9.20;99.90
23597;DHT22;40226;50.874;4.394;2022-11-13T08:52:22;9.30;99.90
23597;DHT22;40226;50.874;4.394;2022-11-13T08:54:48;9.40;99.90
23597;DHT22;40226;50.874;4.394;2022-11-13T08:57:13;9.40;99.90
23597;DHT22;40226;50.874;4.394;2022-11-13T08:59:39;9.40;99.90
23597;DHT22;40226;50.874;4.394;2022-11-13T09:02:14;9.60;99.90
23597;DHT22;40226;50.874;4.394;2022-11-13T09:05:03;9.70;99.90
23597;DHT22;40226;50.874;4.394;2022-11-13T09:07:31;9.70;99.90
23597;DHT22;40226;50.874;4.394;2022-11-13T09:09:57;9.90;99.90
23597;DHT22;40226;50.874;4.394;2022-11-13T09:12:23;10.10;99.90
23597;DHT22;40226;50.874;4.394;2022-11-13T09:15:31;10.00;99.90
23597;DHT22;40226;50.874;4.394;2022-11-13T09:18:22;9.80;99.90
23597;DHT22;40226;50.874;4.394;2022-11-13T09:21:11;9.80;99.90
23597;DHT22;40226;50.874;4.394;2022-11-13T09:23:36;9.80;99.90
23597;DHT22;40226;50.874;4.394;2022-11-13T09:26:02;9.80;99.90
23597;DHT22;40226;50.874;4.394;2022-11-13T09:28:28;9.90;99.90
23597;DHT22;40226;50.874;4.394;2022-11-13T09:30:54;10.00;99.90
23597;DHT22;40226;50.874;4.394;2022-11-13T09:33:59;10.20;99.90
23597;DHT22;40226;50.874;4.394;2022-11-13T09:36:47;10.40;99.90
23597;DHT22;40226;50.874;4.394;2022-11-13T09:40:15;10.60;99.90
23597;DHT22;40226;50.874;4.394;2022-11-13T09:46:41;11.30;99.90
23597;DHT22;40226;50.874;4.394;2022-11-13T09:49:21;11.40;99.90
23597;DHT22;40226;50.874;4.394;2022-11-13T09:51:54;11.60;99.90
23597;DHT22;40226;50.874;4.394;2022-11-13T09:54:20;11.70;99.90
23597;DHT22;40226;50.874;4.394;2022-11-13T09:57:06;11.60;99.90
23597;DHT22;40226;50.874;4.394;2022-11-13T09:59:43;11.70;99.90
23597;DHT22;40226;50.874;4.394;2022-11-13T10:07:14;12.20;99.90
23597;DHT22;40226;50.874;4.394;2022-11-13T10:12:34;12.60;99.90
23597;DHT22;40226;50.874;4.394;2022-11-13T10:15:50;12.60;99.90
23597;DHT22;40226;50.874;4.394;2022-11-13T10:18:22;13.00;99.90
23597;DHT22;40226;50.874;4.394;2022-11-13T10:20:51;13.90;99.90
23597;DHT22;40226;50.874;4.394;2022-11-13T10:23:20;15.00;99.90
23597;DHT22;40226;50.874;4.394;2022-11-13T10:25:47;15.80;99.90
23597;DHT22;40226;50.874;4.394;2022-11-13T10:28:20;16.30;99.90
23597;DHT22;40226;50.874;4.394;2022-11-13T10:30:47;16.60;99.90
23597;DHT22;40226;50.874;4.394;2022-11-13T10:33:20;16.30;99.90
23597;DHT22;40226;50.874;4.394;2022-11-13T10:36:12;15.70;99.90
23597;DHT22;40226;50.874;4.394;2022-11-13T10:38:41;15.10;99.90
23597;DHT22;40226;50.874;4.394;2022-11-13T10:41:15;14.80;99.90
23597;DHT22;40226;50.874;4.394;2022-11-13T10:47:17;14.20;99.90
23597;DHT22;40226;50.874;4.394;2022-11-13T10:49:43;14.10;99.90
23597;DHT22;40226;50.874;4.394;2022-11-13T10:52:26;13.90;99.90
23597;DHT22;40226;50.874;4.394;2022-11-13T10:57:37;14.10;99.90
23597;DHT22;40226;50.874;4.394;2022-11-13T11:00:18;14.20;99.90
23597;DHT22;40226;50.874;4.394;2022-11-13T11:02:48;14.00;99.90
23597;DHT22;40226;50.874;4.394;2022-11-13T11:05:23;13.90;99.90
23597;DHT22;40226;50.874;4.394;2022-11-13T11:07:50;14.10;99.90
23597;DHT22;40226;50.874;4.394;2022-11-13T11:10:20;14.10;99.90
23597;DHT22;40226;50.874;4.394;2022-11-13T11:12:54;14.00;99.90
23597;DHT22;40226;50.874;4.394;2022-11-13T11:18:04;14.20;99.90
23597;DHT22;40226;50.874;4.394;2022-11-13T11:26:24;14.40;99.90
23597;DHT22;40226;50.874;4.394;2022-11-13T11:29:04;14.50;99.90
23597;DHT22;40226;50.874;4.394;2022-11-13T11:31:44;14.80;99.90
23597;DHT22;40226;50.874;4.394;2022-11-13T11:34:45;15.00;99.90
23597;DHT22;40226;50.874;4.394;2022-11-13T11:37:16;15.20;99.90
23597;DHT22;40226;50.874;4.394;2022-11-13T11:39:54;15.30;99.90
23597;DHT22;40226;50.874;4.394;2022-11-13T11:45:43;15.40;99.90
23597;DHT22;40226;50.874;4.394;2022-11-13T11:48:14;15.60;99.90
23597;DHT22;40226;50.874;4.394;2022-11-13T11:54:06;15.50;99.90
23597;DHT22;40226;50.874;4.394;2022-11-13T11:56:36;15.60;99.90
23597;DHT22;40226;50.874;4.394;2022-11-13T11:59:08;15.40;99.90
23597;DHT22;40226;50.874;4.394;2022-11-13T12:01:57;15.50;99.90
23597;DHT22;40226;50.874;4.394;2022-11-13T12:23:47;15.80;99.90
23597;DHT22;40226;50.874;4.394;2022-11-13T12:26:52;15.90;99.90
23597;DHT22;40226;50.874;4.394;2022-11-13T12:35:15;16.10;99.90
23597;DHT22;40226;50.874;4.394;2022-11-13T12:45:52;16.20;99.90
23597;DHT22;40226;50.874;4.394;2022-11-13T12:50:56;16.20;99.90
23597;DHT22;40226;50.874;4.394;2022-11-13T12:53:27;16.10;99.90
23597;DHT22;40226;50.874;4.394;2022-11-13T12:56:01;16.20;99.90
23597;DHT22;40226;50.874;4.394;2022-11-13T12:58:32;16.50;99.90
23597;DHT22;40226;50.874;4.394;2022-11-13T13:14:56;21.20;99.90
23597;DHT22;40226;50.874;4.394;2022-11-13T13:17:25;20.50;99.90
23597;DHT22;40226;50.874;4.394;2022-11-13T13:19:58;19.70;99.90
23597;DHT22;40226;50.874;4.394;2022-11-13T13:22:27;19.20;99.90
23597;DHT22;40226;50.874;4.394;2022-11-13T13:25:29;18.60;99.90
23597;DHT22;40226;50.874;4.394;2022-11-13T13:30:49;19.20;99.90
23597;DHT22;40226;50.874;4.394;2022-11-13T13:38:57;23.60;99.90
23597;DHT22;40226;50.874;4.394;2022-11-13T13:42:17;24.60;99.90
23597;DHT22;40226;50.874;4.394;2022-11-13T13:44:29;24.00;99.90
23597;DHT22;40226;50.874;4.394;2022-11-13T13:46:58;22.30;99.90
23597;DHT22;40226;50.874;4.394;2022-11-13T13:49:24;21.50;99.90
23597;DHT22;40226;50.874;4.394;2022-11-13T13:51:53;20.60;99.90
23597;DHT22;40226;50.874;4.394;2022-11-13T13:54:25;19.70;99.90
23597;DHT22;40226;50.874;4.394;2022-11-13T13:56:52;19.20;99.90
23597;DHT22;40226;50.874;4.394;2022-11-13T13:59:30;18.60;99.90
23597;DHT22;40226;50.874;4.394;2022-11-13T14:02:02;18.10;99.90
23597;DHT22;40226;50.874;4.394;2022-11-13T14:04:33;17.70;99.90
23597;DHT22;40226;50.874;4.394;2022-11-13T14:07:00;17.30;99.90
23597;DHT22;40226;50.874;4.394;2022-11-13T14:09:28;17.20;99.90
23597;DHT22;40226;50.874;4.394;2022-11-13T14:12:02;16.90;99.90
23597;DHT22;40226;50.874;4.394;2022-11-13T14:14:27;16.90;99.90
23597;DHT22;40226;50.874;4.394;2022-11-13T14:16:55;16.60;99.90
23597;DHT22;40226;50.874;4.394;2022-11-13T14:19:22;16.30;99.90
23597;DHT22;40226;50.874;4.394;2022-11-13T14:21:49;16.40;99.90
23597;DHT22;40226;50.874;4.394;2022-11-13T14:24:28;16.40;99.90
23597;DHT22;40226;50.874;4.394;2022-11-13T14:26:58;16.20;99.90
23597;DHT22;40226;50.874;4.394;2022-11-13T14:32:09;16.00;99.90
23597;DHT22;40226;50.874;4.394;2022-11-13T14:34:37;16.00;99.90
23597;DHT22;40226;50.874;4.394;2022-11-13T14:39:51;15.80;99.90
23597;DHT22;40226;50.874;4.394;2022-11-13T14:42:29;15.90;99.90
23597;DHT22;40226;50.874;4.394;2022-11-13T14:45:17;15.90;99.90
23597;DHT22;40226;50.874;4.394;2022-11-13T14:47:53;16.00;99.90
23597;DHT22;40226;50.874;4.394;2022-11-13T14:50:31;15.90;99.90
23597;DHT22;40226;50.874;4.394;2022-11-13T14:53:00;15.80;99.90
23597;DHT22;40226;50.874;4.394;2022-11-13T14:55:32;15.70;99.90
23597;DHT22;40226;50.874;4.394;2022-11-13T14:57:58;15.70;99.90
23597;DHT22;40226;50.874;4.394;2022-11-13T15:00:41;15.60;99.90
23597;DHT22;40226;50.874;4.394;2022-11-13T15:03:07;15.60;99.90
23597;DHT22;40226;50.874;4.394;2022-11-13T15:05:32;15.50;99.90
23597;DHT22;40226;50.874;4.394;2022-11-13T15:07:58;15.50;99.90
23597;DHT22;40226;50.874;4.394;2022-11-13T15:10:26;15.50;99.90
23597;DHT22;40226;50.874;4.394;2022-11-13T15:12:52;15.60;99.90
23597;DHT22;40226;50.874;4.394;2022-11-13T15:15:25;15.40;99.90
23597;DHT22;40226;50.874;4.394;2022-11-13T15:17:51;15.40;99.90
23597;DHT22;40226;50.874;4.394;2022-11-13T15:20:23;15.20;99.90
23597;DHT22;40226;50.874;4.394;2022-11-13T15:22:50;15.20;99.90
23597;DHT22;40226;50.874;4.394;2022-11-13T15:25:21;15.20;99.90
23597;DHT22;40226;50.874;4.394;2022-11-13T15:27:47;15.20;99.90
23597;DHT22;40226;50.874;4.394;2022-11-13T15:30:13;15.10;99.90
23597;DHT22;40226;50.874;4.394;2022-11-13T15:32:39;15.10;99.90
23597;DHT22;40226;50.874;4.394;2022-11-13T15:35:06;15.00;99.90
23597;DHT22;40226;50.874;4.394;2022-11-13T15:37:32;14.70;99.90
23597;DHT22;40226;50.874;4.394;2022-11-13T15:39:58;14.70;99.90
23597;DHT22;40226;50.874;4.394;2022-11-13T15:42:34;14.50;99.90
23597;DHT22;40226;50.874;4.394;2022-11-13T15:45:00;14.40;99.90
23597;DHT22;40226;50.874;4.394;2022-11-13T15:47:31;14.40;99.90
23597;DHT22;40226;50.874;4.394;2022-11-13T15:49:58;14.40;99.90
23597;DHT22;40226;50.874;4.394;2022-11-13T15:52:29;14.40;99.90
23597;DHT22;40226;50.874;4.394;2022-11-13T15:54:57;14.20;99.90
23597;DHT22;40226;50.874;4.394;2022-11-13T15:57:28;14.20;99.90
23597;DHT22;40226;50.874;4.394;2022-11-13T15:59:54;14.10;99.90
23597;DHT22;40226;50.874;4.394;2022-11-13T16:02:20;14.00;99.90
23597;DHT22;40226;50.874;4.394;2022-11-13T16:04:46;14.00;99.90
23597;DHT22;40226;50.874;4.394;2022-11-13T16:07:17;13.80;99.90
23597;DHT22;40226;50.874;4.394;2022-11-13T16:09:44;13.70;99.90
23597;DHT22;40226;50.874;4.394;2022-11-13T16:12:11;13.60;99.90
23597;DHT22;40226;50.874;4.394;2022-11-13T16:14:41;13.60;99.90
23597;DHT22;40226;50.874;4.394;2022-11-13T16:17:38;13.50;99.90
23597;DHT22;40226;50.874;4.394;2022-11-13T16:20:15;13.40;99.90
23597;DHT22;40226;50.874;4.394;2022-11-13T16:22:41;13.30;99.90
23597;DHT22;40226;50.874;4.394;2022-11-13T16:25:10;13.20;99.90
23597;DHT22;40226;50.874;4.394;2022-11-13T16:27:36;13.20;99.90
23597;DHT22;40226;50.874;4.394;2022-11-13T16:30:16;13.20;99.90
23597;DHT22;40226;50.874;4.394;2022-11-13T16:32:49;13.20;99.90
23597;DHT22;40226;50.874;4.394;2022-11-13T16:35:27;13.00;99.90
23597;DHT22;40226;50.874;4.394;2022-11-13T16:38:18;13.10;99.90
23597;DHT22;40226;50.874;4.394;2022-11-13T16:40:47;13.10;99.90
23597;DHT22;40226;50.874;4.394;2022-11-13T16:43:15;13.00;99.90
23597;DHT22;40226;50.874;4.394;2022-11-13T16:49:12;12.90;99.90
23597;DHT22;40226;50.874;4.394;2022-11-13T16:51:54;12.80;99.90
23597;DHT22;40226;50.874;4.394;2022-11-13T16:58:28;12.80;99.90
23597;DHT22;40226;50.874;4.394;2022-11-13T17:00:56;12.80;99.90
23597;DHT22;40226;50.874;4.394;2022-11-13T17:03:27;12.60;99.90
23597;DHT22;40226;50.874;4.394;2022-11-13T17:06:05;12.60;99.90
23597;DHT22;40226;50.874;4.394;2022-11-13T17:08:31;12.50;99.90
23597;DHT22;40226;50.874;4.394;2022-11-13T17:10:57;12.40;99.90
23597;DHT22;40226;50.874;4.394;2022-11-13T17:13:23;12.30;99.90
23597;DHT22;40226;50.874;4.394;2022-11-13T17:15:58;12.40;99.90
23597;DHT22;40226;50.874;4.394;2022-11-13T17:18:25;12.40;99.90
23597;DHT22;40226;50.874;4.394;2022-11-13T17:20:55;12.40;99.90
23597;DHT22;40226;50.874;4.394;2022-11-13T17:23:25;12.10;99.90
23597;DHT22;40226;50.874;4.394;2022-11-13T17:26:14;12.10;99.90
23597;DHT22;40226;50.874;4.394;2022-11-13T17:29:04;12.00;99.90
23597;DHT22;40226;50.874;4.394;2022-11-13T17:31:35;11.90;99.90
23597;DHT22;40226;50.874;4.394;2022-11-13T17:34:25;11.90;99.90
23597;DHT22;40226;50.874;4.394;2022-11-13T17:36:55;12.00;99.90
23597;DHT22;40226;50.874;4.394;2022-11-13T17:39:21;12.10;99.90
23597;DHT22;40226;50.874;4.394;2022-11-13T17:41:47;11.90;99.90
23597;DHT22;40226;50.874;4.394;2022-11-13T17:44:15;11.80;99.90